createdAt,value
2024-05-09T00:00:38.968Z,62.97
2024-05-09T00:01:32.821Z,63.45
2024-05-09T00:02:32.898Z,63.54
2024-05-09T00:03:32.792Z,63.83
2024-05-09T00:04:32.897Z,63.73
2024-05-09T00:05:32.884Z,63.45
2024-05-09T00:06:32.778Z,63.07
2024-05-09T00:07:32.794Z,63.35
2024-05-09T00:08:32.851Z,63.35
2024-05-09T00:09:32.796Z,63.35
2024-05-09T00:10:36.240Z,63.26
2024-05-09T00:11:32.881Z,63.26
2024-05-09T00:12:32.788Z,63.45
2024-05-09T00:13:32.775Z,63.54
2024-05-09T00:14:32.849Z,63.73
2024-05-09T00:15:32.760Z,63.83
2024-05-09T00:16:32.753Z,63.83
2024-05-09T00:17:32.909Z,63.64
2024-05-09T00:18:32.830Z,63.73
2024-05-09T00:19:32.832Z,63.07
2024-05-09T00:20:38.037Z,62.68
2024-05-09T00:21:32.747Z,63.16
2024-05-09T00:22:32.738Z,63.07
2024-05-09T00:23:33.024Z,63.64
2024-05-09T00:24:32.753Z,63.73
2024-05-09T00:25:32.729Z,63.83
2024-05-09T00:26:32.844Z,63.45
2024-05-09T00:27:32.720Z,64.12
2024-05-09T00:28:32.723Z,63.73
2024-05-09T00:29:32.851Z,63.51
2024-05-09T00:30:35.450Z,63.80
2024-05-09T00:31:32.713Z,64.09
2024-05-09T00:32:32.892Z,63.70
2024-05-09T00:33:32.827Z,63.42
2024-05-09T00:34:32.734Z,63.89
2024-05-09T00:35:32.747Z,64.18
2024-05-09T00:36:32.702Z,64.09
2024-05-09T00:37:32.700Z,64.09
2024-05-09T00:38:32.855Z,64.18
2024-05-09T00:39:32.687Z,64.18
2024-05-09T00:40:38.731Z,63.99
2024-05-09T00:41:32.736Z,64.28
2024-05-09T00:42:32.680Z,64.18
2024-05-09T00:43:32.685Z,64.85
2024-05-09T00:44:32.731Z,64.65
2024-05-09T00:45:32.677Z,64.09
2024-05-09T00:46:32.674Z,64.56
2024-05-09T00:47:32.798Z,64.65
2024-05-09T00:48:32.776Z,64.56
2024-05-09T00:49:32.733Z,64.47
2024-05-09T00:51:32.652Z,64.65
2024-05-09T00:52:32.650Z,64.65
2024-05-09T00:53:32.747Z,64.56
2024-05-09T00:54:32.643Z,64.85
2024-05-09T00:55:32.653Z,64.56
2024-05-09T00:56:32.710Z,64.85
2024-05-09T00:57:32.635Z,64.28
2024-05-09T00:58:32.637Z,64.75
2024-05-09T00:59:32.676Z,64.85
2024-05-09T01:00:38.661Z,64.65
2024-05-09T01:01:32.695Z,65.33
2024-05-09T01:02:32.816Z,64.94
2024-05-09T01:03:32.865Z,65.14
2024-05-09T01:04:32.651Z,65.23
2024-05-09T01:05:32.745Z,64.94
2024-05-09T01:06:32.598Z,65.23
2024-05-09T01:07:32.618Z,65.14
2024-05-09T01:08:32.720Z,65.14
2024-05-09T01:09:32.610Z,65.23
2024-05-09T01:10:35.043Z,65.61
2024-05-09T01:11:32.765Z,65.77
2024-05-09T01:12:32.709Z,65.71
2024-05-09T01:13:32.585Z,65.67
2024-05-09T01:14:32.620Z,65.71
2024-05-09T01:15:32.577Z,65.67
2024-05-09T01:16:32.573Z,65.96
2024-05-09T01:17:32.667Z,65.67
2024-05-09T01:18:32.650Z,65.77
2024-05-09T01:19:32.839Z,65.77
2024-05-09T01:20:40.868Z,65.96
2024-05-09T01:21:32.555Z,65.87
2024-05-09T01:22:32.556Z,65.87
2024-05-09T01:23:32.712Z,65.58
2024-05-09T01:24:32.554Z,65.77
2024-05-09T01:25:32.554Z,66.25
2024-05-09T01:26:32.618Z,66.15
2024-05-09T01:27:32.537Z,66.15
2024-05-09T01:28:32.548Z,66.06
2024-05-09T01:29:32.605Z,65.87
2024-05-09T01:30:35.507Z,66.06
2024-05-09T01:31:32.539Z,65.96
2024-05-09T01:32:32.708Z,66.25
2024-05-09T01:33:32.980Z,66.15
2024-05-09T01:34:32.526Z,65.87
2024-05-09T01:35:32.573Z,65.67
2024-05-09T01:36:32.510Z,66.25
2024-05-09T01:37:32.509Z,66.06
2024-05-09T01:38:32.558Z,66.35
2024-05-09T01:39:32.501Z,66.15
2024-05-09T01:40:38.030Z,65.87
2024-05-09T01:41:32.552Z,65.48
2024-05-09T01:42:32.493Z,65.67
2024-05-09T01:43:32.498Z,65.77
2024-05-09T01:44:32.527Z,66.06
2024-05-09T01:45:32.501Z,66.15
2024-05-09T01:46:32.487Z,66.06
2024-05-09T01:47:32.602Z,65.77
2024-05-09T01:48:32.557Z,65.87
2024-05-09T01:49:32.574Z,65.77
2024-05-09T01:50:38.586Z,65.77
2024-05-09T01:51:32.478Z,66.06
2024-05-09T01:52:32.458Z,66.15
2024-05-09T01:53:32.543Z,66.35
2024-05-09T01:54:32.455Z,65.96
2024-05-09T01:55:32.449Z,65.96
2024-05-09T01:56:32.531Z,66.06
2024-05-09T01:57:32.442Z,65.87
2024-05-09T01:58:32.446Z,65.77
2024-05-09T01:59:32.598Z,66.15
2024-05-09T02:00:38.551Z,65.67
2024-05-09T02:01:55.391Z,66.25
2024-05-09T02:02:32.449Z,66.25
2024-05-09T02:03:32.542Z,66.44
2024-05-09T02:04:32.473Z,66.44
2024-05-09T02:05:32.563Z,66.44
2024-05-09T02:06:32.437Z,66.35
2024-05-09T02:07:32.406Z,66.35
2024-05-09T02:08:32.580Z,66.53
2024-05-09T02:09:32.401Z,66.44
2024-05-09T02:10:33.329Z,67.01
2024-05-09T02:11:32.554Z,66.92
2024-05-09T02:12:32.450Z,66.88
2024-05-09T02:13:32.387Z,66.82
2024-05-09T02:14:32.393Z,66.72
2024-05-09T02:15:32.386Z,66.82
2024-05-09T02:16:32.377Z,66.82
2024-05-09T02:17:32.520Z,67.07
2024-05-09T02:18:32.427Z,67.11
2024-05-09T02:19:32.762Z,67.11
2024-05-09T02:20:36.281Z,66.60
2024-05-09T02:21:32.361Z,67.07
2024-05-09T02:22:32.363Z,66.60
2024-05-09T02:23:32.464Z,66.88
2024-05-09T02:24:32.351Z,66.98
2024-05-09T02:25:32.504Z,67.27
2024-05-09T02:26:32.371Z,67.07
2024-05-09T02:27:32.337Z,67.46
2024-05-09T02:28:32.337Z,67.46
2024-05-09T02:29:32.479Z,67.55
2024-05-09T02:30:39.096Z,67.36
2024-05-09T02:31:32.329Z,67.27
2024-05-09T02:32:32.488Z,67.27
2024-05-09T02:33:32.519Z,67.27
2024-05-09T02:34:32.341Z,67.46
2024-05-09T02:35:32.409Z,67.27
2024-05-09T02:36:32.305Z,67.46
2024-05-09T02:37:32.304Z,67.46
2024-05-09T02:38:32.434Z,67.46
2024-05-09T02:39:32.296Z,67.74
2024-05-09T02:40:37.319Z,67.46
2024-05-09T02:41:32.337Z,67.65
2024-05-09T02:42:32.280Z,67.93
2024-05-09T02:43:32.311Z,67.83
2024-05-09T02:44:32.314Z,67.93
2024-05-09T02:45:32.307Z,68.12
2024-05-09T02:46:32.306Z,68.03
2024-05-09T02:47:32.409Z,68.03
2024-05-09T02:48:32.377Z,67.93
2024-05-09T02:49:32.341Z,68.12
2024-05-09T02:50:37.931Z,68.41
2024-05-09T02:51:32.253Z,68.03
2024-05-09T02:52:32.251Z,68.22
2024-05-09T02:53:32.329Z,68.22
2024-05-09T02:54:32.452Z,68.32
2024-05-09T02:55:32.345Z,68.51
2024-05-09T02:56:32.275Z,68.22
2024-05-09T02:57:32.229Z,68.03
2024-05-09T02:58:32.242Z,68.03
2024-05-09T02:59:32.305Z,68.03
2024-05-09T03:00:38.462Z,68.22
2024-05-09T03:01:32.239Z,68.03
2024-05-09T03:02:32.305Z,68.32
2024-05-09T03:03:32.433Z,68.22
2024-05-09T03:04:32.418Z,68.79
2024-05-09T03:05:32.449Z,68.88
2024-05-09T03:06:32.199Z,68.79
2024-05-09T03:07:32.207Z,68.98
2024-05-09T03:08:32.369Z,68.88
2024-05-09T03:09:32.198Z,68.88
2024-05-09T03:10:35.813Z,68.95
2024-05-09T03:11:32.300Z,68.51
2024-05-09T03:12:32.192Z,68.60
2024-05-09T03:13:32.177Z,68.85
2024-05-09T03:14:32.209Z,68.98
2024-05-09T03:15:32.162Z,68.66
2024-05-09T03:16:32.164Z,68.66
2024-05-09T03:17:32.359Z,68.85
2024-05-09T03:18:32.247Z,69.52
2024-05-09T03:19:32.243Z,68.85
2024-05-09T03:20:34.740Z,69.23
2024-05-09T03:21:32.172Z,69.33
2024-05-09T03:22:32.152Z,69.62
2024-05-09T03:23:32.162Z,69.14
2024-05-09T03:24:32.128Z,69.43
2024-05-09T03:25:32.154Z,69.52
2024-05-09T03:26:32.204Z,70.28
2024-05-09T03:27:32.145Z,69.90
2024-05-09T03:28:32.125Z,70.09
2024-05-09T03:29:32.182Z,69.90
2024-05-09T03:30:39.779Z,69.62
2024-05-09T03:31:32.113Z,69.14
2024-05-09T03:32:32.177Z,69.52
2024-05-09T03:33:32.339Z,69.71
2024-05-09T03:34:32.163Z,69.33
2024-05-09T03:35:32.131Z,69.43
2024-05-09T03:36:32.083Z,69.62
2024-05-09T03:37:32.085Z,69.43
2024-05-09T03:38:32.137Z,69.14
2024-05-09T03:39:32.076Z,69.90
2024-05-09T03:40:32.059Z,69.71
2024-05-09T03:41:32.187Z,69.71
2024-05-09T03:42:32.067Z,70.28
2024-05-09T03:43:32.053Z,70.28
2024-05-09T03:44:32.207Z,69.81
2024-05-09T03:45:32.043Z,70.09
2024-05-09T03:46:32.045Z,70.00
2024-05-09T03:47:32.182Z,70.09
2024-05-09T03:48:32.193Z,70.19
2024-05-09T03:49:32.123Z,70.28
2024-05-09T03:50:35.565Z,70.19
2024-05-09T03:51:32.025Z,70.28
2024-05-09T03:52:32.028Z,70.47
2024-05-09T03:53:32.207Z,70.86
2024-05-09T03:54:32.030Z,70.67
2024-05-09T03:55:32.178Z,70.67
2024-05-09T03:56:32.088Z,70.57
2024-05-09T03:57:32.011Z,70.86
2024-05-09T03:58:31.998Z,70.28
2024-05-09T03:59:32.097Z,70.00
2024-05-09T04:00:37.916Z,70.19
2024-05-09T04:01:32.153Z,70.28
2024-05-09T04:02:32.102Z,70.19
2024-05-09T04:03:32.089Z,70.67
2024-05-09T04:04:32.117Z,70.76
2024-05-09T04:05:32.119Z,70.86
2024-05-09T04:06:31.974Z,70.67
2024-05-09T04:07:31.993Z,70.67
2024-05-09T04:08:31.993Z,70.95
2024-05-09T04:09:31.956Z,70.95
2024-05-09T04:10:34.129Z,71.14
2024-05-09T04:11:32.093Z,71.14
2024-05-09T04:12:32.049Z,71.23
2024-05-09T04:13:31.939Z,71.23
2024-05-09T04:14:32.003Z,70.76
2024-05-09T04:15:32.501Z,71.14
2024-05-09T04:16:31.933Z,71.04
2024-05-09T04:17:32.124Z,71.23
2024-05-09T04:18:31.996Z,71.04
2024-05-09T04:19:31.965Z,71.43
2024-05-09T04:20:37.948Z,71.62
2024-05-09T04:21:31.908Z,71.62
2024-05-09T04:22:31.905Z,71.52
2024-05-09T04:23:32.039Z,71.04
2024-05-09T04:24:31.897Z,70.67
2024-05-09T04:25:31.919Z,71.14
2024-05-09T04:26:31.950Z,71.72
2024-05-09T04:27:31.891Z,71.52
2024-05-09T04:28:31.897Z,72.00
2024-05-09T04:29:31.992Z,71.81
2024-05-09T04:30:37.812Z,71.81
2024-05-09T04:31:31.869Z,72.09
2024-05-09T04:32:31.971Z,72.00
2024-05-09T04:33:32.130Z,71.52
2024-05-09T04:34:31.933Z,71.52
2024-05-09T04:35:31.971Z,71.62
2024-05-09T04:36:31.853Z,71.72
2024-05-09T04:37:31.854Z,72.00
2024-05-09T04:38:31.948Z,71.91
2024-05-09T04:39:31.841Z,71.72
2024-05-09T04:40:35.161Z,71.62
2024-05-09T04:41:32.018Z,72.09
2024-05-09T04:42:31.832Z,71.62
2024-05-09T04:43:31.845Z,71.52
2024-05-09T04:44:31.916Z,71.72
2024-05-09T04:45:31.820Z,72.09
2024-05-09T04:46:31.807Z,72.19
2024-05-09T04:47:31.870Z,72.38
2024-05-09T04:48:31.902Z,72.19
2024-05-09T04:49:31.889Z,72.19
2024-05-09T04:50:36.715Z,72.19
2024-05-09T04:51:31.794Z,72.48
2024-05-09T04:52:31.797Z,72.28
2024-05-09T04:53:31.972Z,72.09
2024-05-09T04:54:36.391Z,72.28
2024-05-09T04:55:31.828Z,72.09
2024-05-09T04:56:31.853Z,71.91
2024-05-09T04:57:31.777Z,72.00
2024-05-09T04:58:31.765Z,72.00
2024-05-09T04:59:31.891Z,71.72
2024-05-09T05:00:36.442Z,72.09
2024-05-09T05:01:31.782Z,72.09
2024-05-09T05:02:31.832Z,71.62
2024-05-09T05:03:32.114Z,71.52
2024-05-09T05:04:31.809Z,71.62
2024-05-09T05:05:31.832Z,72.00
2024-05-09T05:06:31.735Z,72.09
2024-05-09T05:07:31.741Z,72.09
2024-05-09T05:08:31.949Z,72.09
2024-05-09T05:09:31.735Z,72.19
2024-05-09T05:10:35.927Z,72.19
2024-05-09T05:11:31.768Z,72.28
2024-05-09T05:12:31.824Z,72.19
2024-05-09T05:13:31.713Z,72.09
2024-05-09T05:14:31.757Z,72.19
2024-05-09T05:15:31.704Z,72.19
2024-05-09T05:16:31.705Z,72.48
2024-05-09T05:17:31.873Z,72.48
2024-05-09T05:18:31.730Z,71.75
2024-05-09T05:19:31.824Z,71.75
2024-05-09T05:20:33.816Z,71.84
2024-05-09T05:21:31.699Z,71.27
2024-05-09T05:22:31.693Z,71.04
2024-05-09T05:23:31.737Z,70.98
2024-05-09T05:24:31.677Z,71.08
2024-05-09T05:25:31.671Z,71.18
2024-05-09T05:26:31.796Z,70.79
2024-05-09T05:27:31.656Z,70.51
2024-05-09T05:28:31.663Z,70.70
2024-05-09T05:29:31.673Z,70.32
2024-05-09T05:30:34.637Z,70.32
2024-05-09T05:31:31.667Z,70.32
2024-05-09T05:32:31.834Z,70.51
2024-05-09T05:33:31.924Z,69.93
2024-05-09T05:34:31.642Z,70.32
2024-05-09T05:35:31.805Z,70.13
2024-05-09T05:36:31.637Z,70.13
2024-05-09T05:37:31.630Z,69.93
2024-05-09T05:38:31.652Z,69.02
2024-05-09T05:39:31.630Z,68.73
2024-05-09T05:40:36.532Z,68.73
2024-05-09T05:41:31.693Z,68.92
2024-05-09T05:42:31.617Z,68.38
2024-05-09T05:43:31.611Z,67.91
2024-05-09T05:44:31.751Z,67.33
2024-05-09T05:45:31.623Z,67.14
2024-05-09T05:46:31.623Z,67.05
2024-05-09T05:47:31.688Z,67.18
2024-05-09T05:48:31.739Z,66.22
2024-05-09T05:49:31.677Z,65.64
2024-05-09T05:50:35.677Z,65.55
2024-05-09T05:51:31.641Z,65.11
2024-05-09T05:52:31.640Z,64.34
2024-05-09T05:53:31.694Z,64.43
2024-05-09T05:54:31.654Z,64.62
2024-05-09T05:55:31.664Z,64.25
2024-05-09T05:56:31.727Z,64.05
2024-05-09T05:57:31.662Z,64.05
2024-05-09T05:58:31.666Z,63.48
2024-05-09T05:59:31.845Z,63.42
2024-05-09T06:00:37.931Z,63.13
2024-05-09T06:01:31.755Z,62.17
2024-05-09T06:02:31.833Z,62.27
2024-05-09T06:03:31.875Z,62.17
2024-05-09T06:04:31.739Z,62.20
2024-05-09T06:05:31.795Z,62.30
2024-05-09T06:06:31.721Z,62.11
2024-05-09T06:07:31.727Z,61.91
2024-05-09T06:08:31.818Z,61.63
2024-05-09T06:09:31.743Z,61.15
2024-05-09T06:10:37.849Z,60.61
2024-05-09T06:11:31.955Z,59.75
2024-05-09T06:12:31.773Z,59.65
2024-05-09T06:13:31.777Z,59.65
2024-05-09T06:14:31.828Z,58.88
2024-05-09T06:15:31.806Z,58.22
2024-05-09T06:16:31.801Z,58.22
2024-05-09T06:17:31.991Z,58.44
2024-05-09T06:18:32.131Z,57.76
2024-05-09T06:19:32.005Z,57.28
2024-05-09T06:20:36.175Z,57.67
2024-05-09T06:21:31.863Z,56.99
2024-05-09T06:22:31.863Z,56.99
2024-05-09T06:23:31.958Z,57.76
2024-05-09T06:24:31.888Z,57.38
2024-05-09T06:25:31.986Z,57.60
2024-05-09T06:26:31.981Z,57.12
2024-05-09T06:27:31.914Z,56.45
2024-05-09T06:28:31.932Z,56.09
2024-05-09T06:29:31.964Z,55.62
2024-05-09T06:30:38.347Z,55.52
2024-05-09T06:31:31.981Z,55.23
2024-05-09T06:32:32.122Z,54.94
2024-05-09T06:33:32.194Z,54.49
2024-05-09T06:34:32.049Z,54.11
2024-05-09T06:35:32.068Z,54.21
2024-05-09T06:36:32.021Z,54.30
2024-05-09T06:37:32.031Z,53.53
2024-05-09T06:38:32.071Z,53.53
2024-05-09T06:39:32.052Z,53.63
2024-05-09T06:40:37.459Z,53.72
2024-05-09T06:41:32.167Z,53.72
2024-05-09T06:42:32.092Z,53.15
2024-05-09T06:43:32.107Z,53.15
2024-05-09T06:44:32.179Z,53.08
2024-05-09T06:45:32.138Z,53.17
2024-05-09T06:46:32.144Z,53.46
2024-05-09T06:47:32.354Z,53.36
2024-05-09T06:48:32.299Z,53.36
2024-05-09T06:49:32.299Z,53.17
2024-05-09T06:50:37.481Z,52.89
2024-05-09T06:51:32.202Z,52.53
2024-05-09T06:52:32.226Z,52.24
2024-05-09T06:53:32.392Z,51.95
2024-05-09T06:54:32.250Z,51.18
2024-05-09T06:55:32.257Z,51.18
2024-05-09T06:56:32.327Z,50.51
2024-05-09T06:57:32.274Z,50.70
2024-05-09T06:58:32.306Z,50.70
2024-05-09T06:59:32.395Z,50.34
2024-05-09T07:00:38.613Z,49.48
2024-05-09T07:01:32.395Z,49.77
2024-05-09T07:02:32.451Z,49.10
2024-05-09T07:03:32.459Z,49.48
2024-05-09T07:04:32.482Z,49.60
2024-05-09T07:05:32.442Z,49.02
2024-05-09T07:06:32.405Z,48.74
2024-05-09T07:07:32.414Z,47.49
2024-05-09T07:08:32.530Z,47.30
2024-05-09T07:09:32.455Z,47.58
2024-05-09T07:10:35.307Z,48.16
2024-05-09T07:11:32.556Z,47.97
2024-05-09T07:12:32.756Z,48.07
2024-05-09T07:13:32.499Z,48.18
2024-05-09T07:14:33.979Z,47.51
2024-05-09T07:15:32.527Z,47.51
2024-05-09T07:16:32.562Z,47.51
2024-05-09T07:17:32.704Z,47.99
2024-05-09T07:18:32.698Z,46.74
2024-05-09T07:19:32.677Z,46.57
2024-05-09T07:20:34.957Z,46.38
2024-05-09T07:21:32.634Z,46.67
2024-05-09T07:22:32.630Z,45.80
2024-05-09T07:23:32.773Z,45.80
2024-05-09T07:24:32.662Z,46.67
2024-05-09T07:25:32.682Z,46.38
2024-05-09T07:26:32.766Z,46.47
2024-05-09T07:27:32.706Z,46.78
2024-05-09T07:28:32.717Z,46.40
2024-05-09T07:29:34.757Z,45.05
2024-05-09T07:30:34.537Z,44.67
2024-05-09T07:31:32.862Z,45.15
2024-05-09T07:32:32.919Z,45.53
2024-05-09T07:33:32.869Z,46.01
2024-05-09T07:34:32.860Z,45.15
2024-05-09T07:35:33.199Z,44.76
2024-05-09T07:36:32.837Z,44.49
2024-05-09T07:37:32.853Z,44.11
2024-05-09T07:38:32.904Z,44.69
2024-05-09T07:39:32.883Z,44.98
2024-05-09T07:40:36.366Z,44.59
2024-05-09T07:41:33.017Z,43.63
2024-05-09T07:42:32.932Z,43.24
2024-05-09T07:43:32.950Z,43.24
2024-05-09T07:44:33.220Z,43.24
2024-05-09T07:50:33.320Z,42.38
2024-05-09T07:52:23.418Z,43.44
2024-05-09T07:53:08.902Z,42.96
2024-05-09T07:53:33.039Z,43.54
2024-05-09T07:53:40.923Z,43.92
2024-05-09T07:54:33.273Z,44.21
2024-05-09T07:55:33.378Z,44.02
2024-05-09T07:56:33.294Z,42.57
2024-05-09T07:57:33.220Z,42.57
2024-05-09T07:58:33.179Z,43.73
2024-05-09T07:59:37.168Z,43.63
2024-05-09T08:00:33.438Z,43.63
2024-05-09T08:01:33.323Z,43.63
2024-05-09T08:02:33.389Z,43.75
2024-05-09T08:03:33.499Z,42.79
2024-05-09T08:04:33.382Z,41.82
2024-05-09T08:05:33.518Z,42.02
2024-05-09T08:06:33.310Z,42.19
2024-05-09T08:07:33.316Z,41.41
2024-05-09T08:08:33.353Z,41.99
2024-05-09T08:09:34.652Z,42.57
2024-05-09T08:10:33.362Z,42.40
2024-05-09T08:11:33.407Z,42.79
2024-05-09T08:12:33.416Z,42.49
2024-05-09T08:13:33.384Z,42.02
2024-05-09T08:14:33.407Z,41.53
2024-05-09T08:15:33.467Z,42.21
2024-05-09T08:16:33.498Z,42.11
2024-05-09T08:17:33.507Z,42.40
2024-05-09T08:18:33.732Z,42.40
2024-05-09T08:19:33.518Z,42.30
2024-05-09T08:20:35.318Z,42.30
2024-05-09T08:21:33.531Z,41.92
2024-05-09T08:22:33.494Z,42.21
2024-05-09T08:23:33.489Z,42.49
2024-05-09T08:24:33.537Z,41.34
2024-05-09T08:25:33.521Z,40.95
2024-05-09T08:26:33.522Z,40.76
2024-05-09T08:27:33.562Z,40.86
2024-05-09T08:28:33.541Z,40.95
2024-05-09T08:29:33.562Z,40.86
2024-05-09T08:30:37.147Z,40.76
2024-05-09T08:31:33.654Z,40.95
2024-05-09T08:32:33.592Z,40.47
2024-05-09T08:33:33.896Z,40.57
2024-05-09T08:34:33.653Z,40.86
2024-05-09T08:35:33.644Z,40.28
2024-05-09T08:36:33.606Z,39.70
2024-05-09T08:37:38.687Z,40.19
2024-05-09T08:38:33.621Z,40.86
2024-05-09T08:39:33.663Z,40.95
2024-05-09T08:40:36.141Z,40.76
2024-05-09T08:41:33.621Z,39.51
2024-05-09T08:42:33.679Z,40.09
2024-05-09T08:43:33.632Z,40.57
2024-05-09T08:44:33.632Z,40.86
2024-05-09T08:45:33.713Z,40.57
2024-05-09T08:46:33.744Z,40.19
2024-05-09T08:47:33.746Z,40.86
2024-05-09T08:48:33.816Z,40.19
2024-05-09T08:49:33.720Z,39.22
2024-05-09T08:50:38.550Z,39.51
2024-05-09T08:51:33.709Z,39.51
2024-05-09T08:52:33.671Z,39.89
2024-05-09T08:53:33.678Z,40.37
2024-05-09T08:54:33.751Z,40.57
2024-05-09T08:55:33.688Z,40.86
2024-05-09T08:56:33.691Z,39.12
2024-05-09T08:57:33.735Z,37.77
2024-05-09T08:58:33.699Z,38.14
2024-05-09T08:59:33.707Z,39.29
2024-05-09T09:00:37.129Z,40.26
2024-05-09T09:01:33.782Z,38.53
2024-05-09T09:02:33.873Z,37.66
2024-05-09T09:03:34.234Z,37.85
2024-05-09T09:04:33.806Z,39.78
2024-05-09T09:05:34.039Z,40.43
2024-05-09T09:06:33.755Z,40.24
2024-05-09T09:07:33.773Z,40.91
2024-05-09T09:08:33.769Z,41.59
2024-05-09T09:09:33.784Z,41.99
2024-05-09T09:10:34.004Z,40.74
2024-05-09T09:11:33.805Z,39.49
2024-05-09T09:12:33.814Z,40.84
2024-05-09T09:13:33.764Z,41.32
2024-05-09T09:14:33.763Z,40.74
2024-05-09T09:15:33.783Z,40.45
2024-05-09T09:16:33.780Z,40.55
2024-05-09T09:17:33.886Z,40.36
2024-05-09T09:18:33.940Z,40.07
2024-05-09T09:19:33.853Z,40.74
2024-05-09T09:20:36.676Z,39.87
2024-05-09T09:21:33.838Z,37.85
2024-05-09T09:22:33.791Z,38.81
2024-05-09T09:23:33.787Z,38.81
2024-05-09T09:24:33.866Z,38.33
2024-05-09T09:25:33.814Z,38.04
2024-05-09T09:26:33.794Z,38.72
2024-05-09T09:27:33.818Z,38.53
2024-05-09T09:28:33.801Z,38.72
2024-05-09T09:29:33.809Z,37.46
2024-05-09T09:30:37.415Z,36.69
2024-05-09T09:31:34.063Z,36.31
2024-05-09T09:32:33.883Z,37.35
2024-05-09T09:33:34.115Z,38.99
2024-05-09T09:34:33.882Z,39.59
2024-05-09T09:35:33.855Z,40.74
2024-05-09T09:36:33.867Z,40.74
2024-05-09T09:37:33.827Z,39.39
2024-05-09T09:38:33.829Z,39.49
2024-05-09T09:39:33.875Z,37.76
2024-05-09T09:40:36.001Z,38.51
2024-05-09T09:41:33.853Z,39.29
2024-05-09T09:42:33.866Z,38.79
2024-05-09T09:43:33.836Z,38.60
2024-05-09T09:44:34.230Z,38.89
2024-05-09T09:45:33.946Z,40.05
2024-05-09T09:46:33.947Z,40.24
2024-05-09T09:47:33.960Z,40.34
2024-05-09T09:48:34.088Z,40.72
2024-05-09T09:49:33.966Z,40.53
2024-05-09T09:50:35.079Z,40.81
2024-05-09T09:51:33.906Z,41.30
2024-05-09T09:52:33.934Z,40.05
2024-05-09T09:53:33.874Z,39.18
2024-05-09T09:54:33.974Z,38.79
2024-05-09T09:55:33.899Z,38.60
2024-05-09T09:56:33.881Z,38.79
2024-05-09T09:57:33.940Z,38.87
2024-05-09T09:58:33.949Z,40.24
2024-05-09T09:59:33.883Z,40.03
2024-05-09T10:00:34.295Z,40.80
2024-05-09T10:01:34.048Z,39.16
2024-05-09T10:02:33.982Z,39.16
2024-05-09T10:03:34.174Z,39.06
2024-05-09T10:04:34.029Z,38.87
2024-05-09T10:05:34.269Z,39.06
2024-05-09T10:06:33.982Z,39.26
2024-05-09T10:07:33.896Z,39.54
2024-05-09T10:08:33.906Z,39.45
2024-05-09T10:09:33.966Z,39.64
2024-05-09T10:10:34.349Z,39.83
2024-05-09T10:11:41.669Z,39.64
2024-05-09T10:12:34.122Z,40.51
2024-05-09T10:13:34.012Z,40.89
2024-05-09T10:14:33.915Z,40.12
2024-05-09T10:15:33.962Z,39.64
2024-05-09T10:16:33.980Z,39.83
2024-05-09T10:17:34.094Z,40.22
2024-05-09T10:18:34.560Z,40.12
2024-05-09T10:19:34.156Z,39.24
2024-05-09T10:20:33.986Z,39.16
2024-05-09T10:21:34.004Z,39.14
2024-05-09T10:22:33.967Z,39.53
2024-05-09T10:23:33.944Z,40.03
2024-05-09T10:24:33.992Z,38.66
2024-05-09T10:25:33.940Z,38.37
2024-05-09T10:26:34.019Z,38.47
2024-05-09T10:27:33.986Z,38.76
2024-05-09T10:28:33.974Z,38.85
2024-05-09T10:29:33.955Z,39.04
2024-05-09T10:30:36.273Z,38.84
2024-05-09T10:31:34.032Z,38.93
2024-05-09T10:32:34.025Z,39.53
2024-05-09T10:33:34.125Z,39.61
2024-05-09T10:34:34.101Z,39.61
2024-05-09T10:35:33.950Z,39.33
2024-05-09T10:36:33.993Z,39.61
2024-05-09T10:37:33.999Z,39.41
2024-05-09T10:38:33.967Z,39.31
2024-05-09T10:39:33.974Z,39.12
2024-05-09T10:40:34.030Z,38.93
2024-05-09T10:41:33.972Z,39.12
2024-05-09T10:42:33.989Z,38.93
2024-05-09T10:43:33.981Z,39.61
2024-05-09T10:44:33.981Z,39.03
2024-05-09T10:45:34.000Z,37.97
2024-05-09T10:46:33.968Z,37.97
2024-05-09T10:47:34.066Z,38.74
2024-05-09T10:48:34.102Z,38.54
2024-05-09T10:49:34.011Z,38.45
2024-05-09T10:50:34.677Z,38.35
2024-05-09T10:51:34.018Z,38.26
2024-05-09T10:52:33.977Z,38.62
2024-05-09T10:53:33.987Z,39.12
2024-05-09T10:54:34.038Z,39.11
2024-05-09T10:55:34.019Z,39.22
2024-05-09T10:56:33.987Z,38.35
2024-05-09T10:57:34.016Z,38.24
2024-05-09T10:58:34.004Z,38.45
2024-05-09T10:59:33.997Z,38.35
2024-05-09T11:00:36.311Z,37.77
2024-05-09T11:01:34.130Z,38.24
2024-05-09T11:02:34.059Z,37.59
2024-05-09T11:03:34.372Z,37.77
2024-05-09T11:04:34.137Z,37.87
2024-05-09T11:05:34.161Z,37.68
2024-05-09T11:06:34.038Z,37.27
2024-05-09T11:07:34.102Z,37.76
2024-05-09T11:08:34.034Z,38.07
2024-05-09T11:09:34.038Z,37.59
2024-05-09T11:10:34.743Z,36.99
2024-05-09T11:11:34.075Z,35.93
2024-05-09T11:12:34.038Z,37.08
2024-05-09T11:13:34.011Z,37.49
2024-05-09T11:14:34.016Z,37.39
2024-05-09T11:15:34.038Z,37.10
2024-05-09T11:16:34.032Z,37.27
2024-05-09T11:17:34.154Z,37.47
2024-05-09T11:18:37.807Z,36.82
2024-05-09T11:19:34.064Z,37.47
2024-05-09T11:20:35.331Z,37.76
2024-05-09T11:21:34.049Z,37.57
2024-05-09T11:22:34.035Z,37.49
2024-05-09T11:23:34.023Z,37.37
2024-05-09T11:24:34.044Z,37.10
2024-05-09T11:25:34.028Z,37.27
2024-05-09T11:26:34.027Z,37.37
2024-05-09T11:27:34.054Z,37.37
2024-05-09T11:28:34.048Z,37.47
2024-05-09T11:29:34.032Z,37.47
2024-05-09T11:30:34.097Z,37.37
2024-05-09T11:31:34.186Z,37.57
2024-05-09T11:32:34.141Z,37.47
2024-05-09T11:33:34.116Z,37.18
2024-05-09T11:34:34.116Z,37.08
2024-05-09T11:35:34.050Z,37.08
2024-05-09T11:36:34.079Z,36.32
2024-05-09T11:37:36.838Z,37.18
2024-05-09T11:38:34.082Z,36.99
2024-05-09T11:39:34.071Z,37.47
2024-05-09T11:40:34.793Z,37.76
2024-05-09T11:41:34.051Z,38.24
2024-05-09T11:42:34.323Z,38.43
2024-05-09T11:43:34.116Z,38.24
2024-05-09T11:44:34.107Z,38.43
2024-05-09T11:45:34.221Z,38.62
2024-05-09T11:46:34.061Z,38.43
2024-05-09T11:47:34.153Z,38.43
2024-05-09T11:48:34.376Z,38.24
2024-05-09T11:49:34.144Z,38.43
2024-05-09T11:50:35.964Z,38.53
2024-05-09T11:51:34.128Z,38.34
2024-05-09T11:52:34.062Z,38.43
2024-05-09T11:53:34.088Z,38.34
2024-05-09T11:54:34.125Z,38.43
2024-05-09T11:55:34.138Z,38.43
2024-05-09T11:56:34.062Z,38.72
2024-05-09T11:57:34.080Z,38.24
2024-05-09T11:58:34.109Z,38.53
2024-05-09T11:59:34.078Z,38.34
2024-05-09T12:01:34.225Z,38.34
2024-05-09T12:02:34.282Z,37.85
2024-05-09T12:03:34.189Z,36.51
2024-05-09T12:04:34.208Z,36.22
2024-05-09T12:05:34.629Z,36.41
2024-05-09T12:06:34.151Z,36.51
2024-05-09T12:07:34.093Z,36.70
2024-05-09T12:08:34.093Z,36.32
2024-05-09T12:09:34.125Z,36.32
2024-05-09T12:10:36.012Z,36.70
2024-05-09T12:11:34.275Z,36.99
2024-05-09T12:12:36.728Z,37.18
2024-05-09T12:13:34.121Z,37.08
2024-05-09T12:14:34.087Z,37.18
2024-05-09T12:15:34.128Z,36.90
2024-05-09T12:16:34.210Z,37.47
2024-05-09T12:17:34.205Z,38.04
2024-05-09T12:18:34.252Z,37.85
2024-05-09T12:19:34.132Z,38.53
2024-05-09T12:20:37.851Z,37.85
2024-05-09T12:21:34.213Z,37.76
2024-05-09T12:22:34.122Z,38.14
2024-05-09T12:23:34.110Z,38.34
2024-05-09T12:24:34.187Z,38.62
2024-05-09T12:25:34.109Z,38.53
2024-05-09T12:26:34.105Z,39.01
2024-05-09T12:27:34.135Z,38.91
2024-05-09T12:28:34.108Z,38.62
2024-05-09T12:29:36.196Z,38.45
2024-05-09T12:30:38.120Z,38.35
2024-05-09T12:31:34.192Z,38.24
2024-05-09T12:32:34.216Z,38.24
2024-05-09T12:33:34.168Z,38.35
2024-05-09T12:34:34.166Z,38.43
2024-05-09T12:35:34.139Z,38.26
2024-05-09T12:36:34.197Z,38.74
2024-05-09T12:37:34.130Z,38.93
2024-05-09T12:38:34.137Z,39.03
2024-05-09T12:39:34.159Z,39.61
2024-05-09T12:40:37.441Z,39.61
2024-05-09T12:41:34.201Z,39.31
2024-05-09T12:42:34.129Z,39.61
2024-05-09T12:43:34.173Z,39.22
2024-05-09T12:44:34.138Z,37.97
2024-05-09T12:45:34.229Z,37.39
2024-05-09T12:46:34.161Z,37.10
2024-05-09T12:47:34.257Z,37.20
2024-05-09T12:48:34.348Z,37.39
2024-05-09T12:49:34.298Z,37.49
2024-05-09T12:50:34.854Z,37.39
2024-05-09T12:51:34.157Z,37.39
2024-05-09T12:52:34.151Z,37.10
2024-05-09T12:53:34.159Z,37.01
2024-05-09T12:54:34.193Z,37.39
2024-05-09T12:55:41.240Z,37.10
2024-05-09T12:56:34.148Z,37.10
2024-05-09T12:57:34.184Z,37.20
2024-05-09T12:58:34.155Z,37.20